createdAt,value
2023-04-13T00:00:46.742Z,10.30
2023-04-13T00:05:40.342Z,10.20
2023-04-13T00:10:36.347Z,9.82
2023-04-13T00:15:29.732Z,9.80
2023-04-13T00:20:24.415Z,9.78
2023-04-13T00:25:18.103Z,9.85
2023-04-13T00:30:13.119Z,9.89
2023-04-13T00:35:09.617Z,9.90
2023-04-13T00:40:05.909Z,9.80
2023-04-13T00:44:59.059Z,9.70
2023-04-13T00:49:53.151Z,9.44
2023-04-13T00:54:46.461Z,9.69
2023-04-13T00:59:41.072Z,9.87
2023-04-13T01:04:38.110Z,9.29
2023-04-13T01:09:36.307Z,9.75
2023-04-13T01:14:37.529Z,9.88
2023-04-13T01:19:51.654Z,9.48
2023-04-13T01:24:53.708Z,9.93
2023-04-13T01:29:49.006Z,9.52
2023-04-13T01:34:42.164Z,9.79
2023-04-13T01:39:35.657Z,9.51
2023-04-13T01:44:38.248Z,9.49
2023-04-13T01:49:33.964Z,9.39
2023-04-13T01:54:43.756Z,9.27
2023-04-13T01:59:37.799Z,9.49
2023-04-13T02:04:32.440Z,9.19
2023-04-13T02:09:28.315Z,9.22
2023-04-13T02:14:21.763Z,9.19
2023-04-13T02:19:16.275Z,9.38
2023-04-13T02:24:10.985Z,9.37
2023-04-13T02:29:05.761Z,8.97
2023-04-13T02:33:59.382Z,9.16
2023-04-13T02:38:53.211Z,9.15
2023-04-13T02:43:56.021Z,9.12
2023-04-13T02:48:51.919Z,8.81
2023-04-13T02:53:45.777Z,9.04
2023-04-13T02:58:39.367Z,9.05
2023-04-13T03:03:41.452Z,8.59
2023-04-13T03:08:35.842Z,8.91
2023-04-13T03:13:33.818Z,8.98
2023-04-13T03:18:27.681Z,9.09
2023-04-13T03:23:22.810Z,9.09
2023-04-13T03:28:16.103Z,9.07
2023-04-13T03:33:11.774Z,8.96
2023-04-13T03:38:05.946Z,8.62
2023-04-13T03:43:04.795Z,8.46
2023-04-13T03:48:01.960Z,8.79
2023-04-13T03:52:55.364Z,8.09
2023-04-13T03:57:49.858Z,8.87
2023-04-13T04:02:49.494Z,8.84
2023-04-13T04:07:51.678Z,8.84
2023-04-13T04:12:44.980Z,8.76
2023-04-13T04:17:40.080Z,8.69
2023-04-13T04:22:36.726Z,8.75
2023-04-13T04:27:37.937Z,9.10
2023-04-13T04:32:34.589Z,8.97
2023-04-13T04:37:30.003Z,9.24
2023-04-13T04:42:30.165Z,9.33
2023-04-13T04:47:30.210Z,9.40
2023-04-13T04:52:34.344Z,9.48
2023-04-13T04:57:31.560Z,9.23
2023-04-13T05:02:24.891Z,9.52
2023-04-13T05:07:19.107Z,9.64
2023-04-13T05:12:12.591Z,9.35
2023-04-13T05:17:10.351Z,10.09
2023-04-13T05:22:06.500Z,10.12
2023-04-13T05:27:08.484Z,10.09
2023-04-13T05:32:03.199Z,10.34
2023-04-13T05:36:58.310Z,10.34
2023-04-13T05:41:51.791Z,10.49
2023-04-13T05:46:45.927Z,10.59
2023-04-13T05:51:40.110Z,11.12
2023-04-13T05:56:35.529Z,11.27
2023-04-13T06:01:29.727Z,11.93
2023-04-13T06:06:23.340Z,12.28
2023-04-13T06:11:17.046Z,12.55
2023-04-13T06:16:12.003Z,12.61
2023-04-13T06:21:05.623Z,12.53
2023-04-13T06:25:59.391Z,12.59
2023-04-13T06:31:13.757Z,12.58
2023-04-13T06:36:12.017Z,12.56
2023-04-13T06:41:06.963Z,12.58
2023-04-13T06:46:05.386Z,12.51
2023-04-13T06:51:03.676Z,12.43
2023-04-13T06:56:01.787Z,12.71
2023-04-13T07:00:56.623Z,12.83
2023-04-13T07:05:51.213Z,12.92
2023-04-13T07:10:54.260Z,12.78
2023-04-13T07:16:05.146Z,13.14
2023-04-13T07:21:03.924Z,13.25
2023-04-13T07:26:07.418Z,13.43
2023-04-13T07:31:06.649Z,13.39
2023-04-13T07:36:00.436Z,13.78
2023-04-13T07:40:59.354Z,14.01
2023-04-13T07:45:56.554Z,14.01
2023-04-13T07:50:53.588Z,14.13
2023-04-13T07:55:50.016Z,14.47
2023-04-13T08:00:43.403Z,14.36
2023-04-13T08:05:37.570Z,14.83
2023-04-13T08:10:47.581Z,14.57
2023-04-13T08:16:02.829Z,14.50
2023-04-13T08:21:03.876Z,15.37
2023-04-13T08:26:20.910Z,15.98
2023-04-13T08:31:52.116Z,16.66
2023-04-13T08:36:52.772Z,18.05
2023-04-13T08:41:48.866Z,19.26
2023-04-13T08:46:46.817Z,19.93
2023-04-13T08:51:54.761Z,20.80
2023-04-13T08:56:50.359Z,21.38
2023-04-13T09:01:50.552Z,21.77
2023-04-13T09:06:51.455Z,21.39
2023-04-13T09:11:49.159Z,21.76
2023-04-13T09:16:49.963Z,21.72
2023-04-13T09:22:27.164Z,21.02
2023-04-13T09:27:36.251Z,21.12
2023-04-13T09:33:05.708Z,22.02
2023-04-13T09:44:27.395Z,20.11
2023-04-13T09:49:22.747Z,19.71
2023-04-13T09:54:22.181Z,19.68
2023-04-13T09:59:16.026Z,19.47
2023-04-13T10:04:10.675Z,20.25
2023-04-13T10:09:06.141Z,20.31
2023-04-13T10:14:02.890Z,19.94
2023-04-13T10:19:02.019Z,19.84
2023-04-13T10:23:57.069Z,20.14
2023-04-13T10:28:51.947Z,20.81
2023-04-13T10:33:49.594Z,21.20
2023-04-13T10:38:49.256Z,21.26
2023-04-13T10:43:45.006Z,21.59
2023-04-13T10:48:44.221Z,21.78
2023-04-13T10:53:37.928Z,21.58
2023-04-13T10:58:34.672Z,22.41
2023-04-13T11:03:29.279Z,22.79
2023-04-13T11:08:28.204Z,23.67
2023-04-13T11:13:32.300Z,24.26
2023-04-13T11:18:29.172Z,25.22
2023-04-13T11:23:24.461Z,25.73
2023-04-13T11:28:19.606Z,26.12
2023-04-13T11:33:13.114Z,25.62
2023-04-13T11:38:06.871Z,25.73
2023-04-13T11:43:03.537Z,25.86
2023-04-13T11:48:00.750Z,26.71
2023-04-13T11:52:57.024Z,26.85
2023-04-13T11:57:50.884Z,27.29
2023-04-13T12:02:59.968Z,28.23
2023-04-13T12:07:58.660Z,28.24
2023-04-13T12:13:16.958Z,27.93
2023-04-13T12:18:15.974Z,28.03
2023-04-13T12:23:23.413Z,27.35
2023-04-13T12:28:19.710Z,27.55
2023-04-13T12:33:13.637Z,28.32
2023-04-13T12:38:09.958Z,28.17
2023-04-13T12:43:05.283Z,28.50
2023-04-13T12:47:58.853Z,29.07
2023-04-13T12:52:53.778Z,28.34
2023-04-13T12:57:47.305Z,29.60
2023-04-13T13:02:42.399Z,29.84
2023-04-13T13:07:36.893Z,29.88
2023-04-13T13:12:32.269Z,29.65
2023-04-13T13:17:25.821Z,29.64
2023-04-13T13:22:20.655Z,29.24
2023-04-13T13:27:50.653Z,29.22
2023-04-13T13:32:34.305Z,30.58
2023-04-13T13:37:29.075Z,31.11
2023-04-13T13:42:22.386Z,31.44
2023-04-13T13:47:16.166Z,31.35
2023-04-13T13:52:15.945Z,31.09
2023-04-13T13:57:17.512Z,30.94
2023-04-13T14:02:11.097Z,31.07
2023-04-13T14:07:06.668Z,31.12
2023-04-13T14:12:02.097Z,31.24
2023-04-13T14:16:56.840Z,31.15
2023-04-13T14:21:50.532Z,31.48
2023-04-13T14:26:43.720Z,31.38
2023-04-13T14:31:39.597Z,31.59
2023-04-13T14:36:34.501Z,31.67
2023-04-13T14:41:31.065Z,31.66
2023-04-13T14:46:24.369Z,31.70
2023-04-13T14:51:18.558Z,31.44
2023-04-13T14:56:13.058Z,31.13
2023-04-13T15:01:19.923Z,30.90
2023-04-13T15:06:14.181Z,29.80
2023-04-13T15:11:07.832Z,27.98
2023-04-13T15:16:02.714Z,27.37
2023-04-13T15:20:55.960Z,25.85
2023-04-13T15:25:49.375Z,24.54
2023-04-13T15:30:43.335Z,23.44
2023-04-13T15:35:37.910Z,22.57
2023-04-13T15:40:33.985Z,21.86
2023-04-13T15:45:27.208Z,21.58
2023-04-13T15:50:20.531Z,20.89
2023-04-13T15:55:15.499Z,20.76
2023-04-13T16:00:09.773Z,20.54
2023-04-13T16:05:03.208Z,20.05
2023-04-13T16:09:58.354Z,20.11
2023-04-13T16:14:56.000Z,19.70
2023-04-13T16:19:51.839Z,19.75
2023-04-13T16:24:45.094Z,19.43
2023-04-13T16:29:41.508Z,18.87
2023-04-13T16:34:41.253Z,17.98
2023-04-13T16:39:34.428Z,18.72
2023-04-13T16:44:27.660Z,18.84
2023-04-13T16:49:20.825Z,18.63
2023-04-13T16:54:17.933Z,18.41
2023-04-13T16:59:11.105Z,18.50
2023-04-13T17:04:04.355Z,18.40
2023-04-13T17:09:00.434Z,18.01
2023-04-13T17:13:55.511Z,18.08
2023-04-13T17:18:48.856Z,17.65
2023-04-13T17:23:43.589Z,16.86
2023-04-13T17:28:39.727Z,17.67
2023-04-13T17:33:34.885Z,16.99
2023-04-13T17:38:31.027Z,17.12
2023-04-13T17:43:24.263Z,17.32
2023-04-13T17:48:21.098Z,16.66
2023-04-13T17:53:15.823Z,16.12
2023-04-13T17:58:10.842Z,17.05
2023-04-13T18:03:05.664Z,16.74
2023-04-13T18:08:01.456Z,16.17
2023-04-13T18:13:00.526Z,16.30
2023-04-13T18:17:56.908Z,16.65
2023-04-13T18:22:50.271Z,16.08
2023-04-13T18:27:44.146Z,16.54
2023-04-13T18:32:38.751Z,16.31
2023-04-13T18:37:37.704Z,16.19
2023-04-13T18:42:32.631Z,16.17
2023-04-13T18:47:27.133Z,16.30
2023-04-13T18:52:23.896Z,16.25
2023-04-13T18:57:17.184Z,15.63
2023-04-13T19:02:10.711Z,15.53
2023-04-13T19:07:08.933Z,16.08
2023-04-13T19:12:03.941Z,15.81
2023-04-13T19:16:59.988Z,15.98
2023-04-13T19:21:57.019Z,15.36
2023-04-13T19:26:53.020Z,15.79
2023-04-13T19:31:48.487Z,16.07
2023-04-13T19:36:42.816Z,15.16
2023-04-13T19:41:38.624Z,15.05
2023-04-13T19:46:32.876Z,16.17
2023-04-13T19:51:28.000Z,16.20
2023-04-13T19:56:35.181Z,15.80
2023-04-13T20:01:33.793Z,15.98
2023-04-13T20:06:28.628Z,16.22
2023-04-13T20:11:22.021Z,16.25
2023-04-13T20:16:18.725Z,16.11
2023-04-13T20:21:21.386Z,16.28
2023-04-13T20:26:16.154Z,15.70
2023-04-13T20:31:09.536Z,16.16
2023-04-13T20:36:03.495Z,15.76
2023-04-13T20:40:57.627Z,15.49
2023-04-13T20:45:53.192Z,15.79
2023-04-13T20:50:48.205Z,15.93
2023-04-13T20:55:42.267Z,15.88
2023-04-13T21:00:35.801Z,14.87
2023-04-13T21:05:33.007Z,15.27
2023-04-13T21:10:26.422Z,15.72
2023-04-13T21:15:25.244Z,15.61
2023-04-13T21:20:18.530Z,15.06
2023-04-13T21:25:13.344Z,15.58
2023-04-13T21:30:07.881Z,15.06
2023-04-13T21:35:01.262Z,15.57
2023-04-13T21:39:54.940Z,15.25
2023-04-13T21:44:52.717Z,15.32
2023-04-13T21:49:45.991Z,15.05
2023-04-13T21:54:39.178Z,15.13
2023-04-13T21:59:32.492Z,14.92
2023-04-13T22:04:27.384Z,14.63
2023-04-13T22:09:20.966Z,14.75
2023-04-13T22:14:14.229Z,14.28
2023-04-13T22:19:07.482Z,14.50
2023-04-13T22:24:02.143Z,14.22
2023-04-13T22:28:55.793Z,14.43
2023-04-13T22:33:49.083Z,13.52
2023-04-13T22:38:42.286Z,13.37
2023-04-13T22:43:37.049Z,12.45
2023-04-13T22:48:30.998Z,12.20
2023-04-13T22:53:24.235Z,12.47
2023-04-13T22:58:17.633Z,12.41
2023-04-13T23:03:13.252Z,12.30
2023-04-13T23:08:06.649Z,12.15
2023-04-13T23:13:00.461Z,12.16
2023-04-13T23:17:55.804Z,12.03
2023-04-13T23:22:50.829Z,11.86
2023-04-13T23:27:44.050Z,11.62
2023-04-13T23:32:37.540Z,11.19
2023-04-13T23:37:30.883Z,11.31
2023-04-13T23:42:25.820Z,11.22
2023-04-13T23:47:19.022Z,11.12
2023-04-13T23:52:12.236Z,11.04
2023-04-13T23:57:05.599Z,11.02
